RJFM

Miyazaki Airport

Miyazaki, Japan
TAF RJFM 201111Z 2012/2118 27012KT 9999 FEW030
Issued Valid From Valid To
Jan-20 @ 11:11 UTC
(2 hours ago)
Jan-20 @ 12:00 UTC
(an hour ago)
Jan-21 @ 18:00 UTC
(-1 days ago)
Jan-20 @ 12:00 to Jan-21 @ 18:00
TAF RJFM 201111Z 2012/2118 27012KT 9999 FEW030
Wind Visibility Clouds
270° at 12 knots 10,000+ meters
  • Few at 3,000' AGL
TAF RJFM 201111Z 2012/2118 27012KT 9999 FEW030
Issued Jan-20 @ 11:11 UTC
(2 hours ago)
Valid From Jan-20 @ 12:00 UTC
(an hour ago)
Valid To Jan-21 @ 18:00 UTC
(-1 days ago)
Jan-20 @ 12:00 - Jan-21 @ 18:00
Wind Visibility
270° at 12 knots 10,000+ meters
Clouds
  • Few at 3,000' AGL